sensor_id;sensor_type;location;lat;lon;timestamp;temperature;humidity
19928;DHT22;10126;50.876;4.470;2023-04-27T00:00:02;6.40;99.90
19928;DHT22;10126;50.876;4.470;2023-04-27T00:02:05;6.40;99.90
19928;DHT22;10126;50.876;4.470;2023-04-27T00:04:06;6.40;99.90
19928;DHT22;10126;50.876;4.470;2023-04-27T00:06:07;6.40;99.90
19928;DHT22;10126;50.876;4.470;2023-04-27T00:08:08;6.30;99.90
19928;DHT22;10126;50.876;4.470;2023-04-27T00:10:09;6.20;99.90
19928;DHT22;10126;50.876;4.470;2023-04-27T00:12:10;6.30;99.90
19928;DHT22;10126;50.876;4.470;2023-04-27T00:14:11;6.20;99.90
19928;DHT22;10126;50.876;4.470;2023-04-27T00:16:11;6.20;99.90
19928;DHT22;10126;50.876;4.470;2023-04-27T00:18:12;6.20;99.90
19928;DHT22;10126;50.876;4.470;2023-04-27T00:20:13;6.20;99.90
19928;DHT22;10126;50.876;4.470;2023-04-27T00:22:13;6.10;99.90
19928;DHT22;10126;50.876;4.470;2023-04-27T00:24:14;6.00;99.90
19928;DHT22;10126;50.876;4.470;2023-04-27T00:26:15;6.10;99.90
19928;DHT22;10126;50.876;4.470;2023-04-27T00:28:15;6.10;99.90
19928;DHT22;10126;50.876;4.470;2023-04-27T00:30:16;6.20;99.90
19928;DHT22;10126;50.876;4.470;2023-04-27T00:32:17;6.20;99.90
19928;DHT22;10126;50.876;4.470;2023-04-27T00:34:17;6.10;99.90
19928;DHT22;10126;50.876;4.470;2023-04-27T00:36:18;6.00;99.90
19928;DHT22;10126;50.876;4.470;2023-04-27T00:38:19;6.10;99.90
19928;DHT22;10126;50.876;4.470;2023-04-27T00:40:20;5.90;99.90
19928;DHT22;10126;50.876;4.470;2023-04-27T00:42:21;5.90;99.90
19928;DHT22;10126;50.876;4.470;2023-04-27T00:44:25;5.90;99.90
19928;DHT22;10126;50.876;4.470;2023-04-27T00:46:26;6.00;99.90
19928;DHT22;10126;50.876;4.470;2023-04-27T00:48:27;5.90;99.90
19928;DHT22;10126;50.876;4.470;2023-04-27T00:50:34;5.80;99.90
19928;DHT22;10126;50.876;4.470;2023-04-27T00:52:35;5.70;99.90
19928;DHT22;10126;50.876;4.470;2023-04-27T00:54:37;5.80;99.90
19928;DHT22;10126;50.876;4.470;2023-04-27T00:56:40;5.80;99.90
19928;DHT22;10126;50.876;4.470;2023-04-27T00:58:41;5.90;99.90
19928;DHT22;10126;50.876;4.470;2023-04-27T01:00:42;5.80;99.90
19928;DHT22;10126;50.876;4.470;2023-04-27T01:02:43;5.80;99.90
19928;DHT22;10126;50.876;4.470;2023-04-27T01:04:43;5.80;99.90
19928;DHT22;10126;50.876;4.470;2023-04-27T01:06:44;5.80;99.90
19928;DHT22;10126;50.876;4.470;2023-04-27T01:08:45;5.70;99.90
19928;DHT22;10126;50.876;4.470;2023-04-27T01:10:46;5.70;99.90
19928;DHT22;10126;50.876;4.470;2023-04-27T01:12:48;5.60;99.90
19928;DHT22;10126;50.876;4.470;2023-04-27T01:14:49;5.60;99.90
19928;DHT22;10126;50.876;4.470;2023-04-27T01:16:51;5.50;99.90
19928;DHT22;10126;50.876;4.470;2023-04-27T01:18:54;5.50;99.90
19928;DHT22;10126;50.876;4.470;2023-04-27T01:20:55;5.60;99.90
19928;DHT22;10126;50.876;4.470;2023-04-27T01:22:56;5.50;99.90
19928;DHT22;10126;50.876;4.470;2023-04-27T01:24:57;5.50;99.90
19928;DHT22;10126;50.876;4.470;2023-04-27T01:26:58;5.50;99.90
19928;DHT22;10126;50.876;4.470;2023-04-27T01:28:59;5.50;99.90
19928;DHT22;10126;50.876;4.470;2023-04-27T01:31:00;5.50;99.90
19928;DHT22;10126;50.876;4.470;2023-04-27T01:33:03;5.60;99.90
19928;DHT22;10126;50.876;4.470;2023-04-27T01:35:04;5.60;99.90
19928;DHT22;10126;50.876;4.470;2023-04-27T01:37:05;5.50;99.90
19928;DHT22;10126;50.876;4.470;2023-04-27T01:39:06;5.50;99.90
19928;DHT22;10126;50.876;4.470;2023-04-27T01:41:08;5.40;99.90
19928;DHT22;10126;50.876;4.470;2023-04-27T01:43:09;5.50;99.90
19928;DHT22;10126;50.876;4.470;2023-04-27T01:45:10;5.60;99.90
19928;DHT22;10126;50.876;4.470;2023-04-27T01:47:11;5.80;99.90
19928;DHT22;10126;50.876;4.470;2023-04-27T01:49:11;5.70;99.90
19928;DHT22;10126;50.876;4.470;2023-04-27T01:51:12;5.60;99.90
19928;DHT22;10126;50.876;4.470;2023-04-27T01:53:13;5.70;99.90
19928;DHT22;10126;50.876;4.470;2023-04-27T01:55:13;5.60;99.90
19928;DHT22;10126;50.876;4.470;2023-04-27T01:57:17;5.50;99.90
19928;DHT22;10126;50.876;4.470;2023-04-27T01:59:17;5.40;99.90
19928;DHT22;10126;50.876;4.470;2023-04-27T02:01:18;5.40;99.90
19928;DHT22;10126;50.876;4.470;2023-04-27T02:03:19;5.30;99.90
19928;DHT22;10126;50.876;4.470;2023-04-27T02:05:19;5.30;99.90
19928;DHT22;10126;50.876;4.470;2023-04-27T02:07:20;5.30;99.90
19928;DHT22;10126;50.876;4.470;2023-04-27T02:09:21;5.30;99.90
19928;DHT22;10126;50.876;4.470;2023-04-27T02:11:21;5.30;99.90
19928;DHT22;10126;50.876;4.470;2023-04-27T02:13:22;5.20;99.90
19928;DHT22;10126;50.876;4.470;2023-04-27T02:15:23;5.20;99.90
19928;DHT22;10126;50.876;4.470;2023-04-27T02:17:23;5.30;99.90
19928;DHT22;10126;50.876;4.470;2023-04-27T02:19:24;5.20;99.90
19928;DHT22;10126;50.876;4.470;2023-04-27T02:21:25;5.10;99.90
19928;DHT22;10126;50.876;4.470;2023-04-27T02:23:25;5.10;99.90
19928;DHT22;10126;50.876;4.470;2023-04-27T02:25:26;5.10;99.90
19928;DHT22;10126;50.876;4.470;2023-04-27T02:27:27;5.20;99.90
19928;DHT22;10126;50.876;4.470;2023-04-27T02:29:30;5.20;99.90
19928;DHT22;10126;50.876;4.470;2023-04-27T02:31:31;4.90;99.90
19928;DHT22;10126;50.876;4.470;2023-04-27T02:33:35;5.00;99.90
19928;DHT22;10126;50.876;4.470;2023-04-27T02:35:36;5.10;99.90
19928;DHT22;10126;50.876;4.470;2023-04-27T02:37:36;5.00;99.90
19928;DHT22;10126;50.876;4.470;2023-04-27T02:39:37;5.00;99.90
19928;DHT22;10126;50.876;4.470;2023-04-27T02:41:38;4.90;99.90
19928;DHT22;10126;50.876;4.470;2023-04-27T02:43:38;5.00;99.90
19928;DHT22;10126;50.876;4.470;2023-04-27T02:45:39;5.00;99.90
19928;DHT22;10126;50.876;4.470;2023-04-27T02:47:40;4.90;99.90
19928;DHT22;10126;50.876;4.470;2023-04-27T02:49:40;4.70;99.90
19928;DHT22;10126;50.876;4.470;2023-04-27T02:51:41;4.80;99.90
19928;DHT22;10126;50.876;4.470;2023-04-27T02:53:42;4.80;99.90
19928;DHT22;10126;50.876;4.470;2023-04-27T02:55:45;4.80;99.90
19928;DHT22;10126;50.876;4.470;2023-04-27T02:57:47;5.00;99.90
19928;DHT22;10126;50.876;4.470;2023-04-27T02:59:48;5.00;99.90
19928;DHT22;10126;50.876;4.470;2023-04-27T03:01:48;5.00;99.90
19928;DHT22;10126;50.876;4.470;2023-04-27T03:03:51;4.90;99.90
19928;DHT22;10126;50.876;4.470;2023-04-27T03:05:52;4.80;99.90
19928;DHT22;10126;50.876;4.470;2023-04-27T03:07:53;4.90;99.90
19928;DHT22;10126;50.876;4.470;2023-04-27T03:09:53;5.00;99.90
19928;DHT22;10126;50.876;4.470;2023-04-27T03:11:54;4.90;99.90
19928;DHT22;10126;50.876;4.470;2023-04-27T03:13:55;4.90;99.90
19928;DHT22;10126;50.876;4.470;2023-04-27T03:15:56;5.00;99.90
19928;DHT22;10126;50.876;4.470;2023-04-27T03:17:56;5.00;99.90
19928;DHT22;10126;50.876;4.470;2023-04-27T03:19:57;5.00;99.90
19928;DHT22;10126;50.876;4.470;2023-04-27T03:21:58;4.90;99.90
19928;DHT22;10126;50.876;4.470;2023-04-27T03:23:58;5.00;99.90
19928;DHT22;10126;50.876;4.470;2023-04-27T03:25:59;5.00;99.90
19928;DHT22;10126;50.876;4.470;2023-04-27T03:28:00;4.90;99.90
19928;DHT22;10126;50.876;4.470;2023-04-27T03:30:01;4.80;99.90
19928;DHT22;10126;50.876;4.470;2023-04-27T03:32:03;4.80;99.90
19928;DHT22;10126;50.876;4.470;2023-04-27T03:34:04;4.90;99.90
19928;DHT22;10126;50.876;4.470;2023-04-27T03:36:06;4.80;99.90
19928;DHT22;10126;50.876;4.470;2023-04-27T03:38:06;4.90;99.90
19928;DHT22;10126;50.876;4.470;2023-04-27T03:40:07;4.80;99.90
19928;DHT22;10126;50.876;4.470;2023-04-27T03:42:08;4.80;99.90
19928;DHT22;10126;50.876;4.470;2023-04-27T03:44:09;4.80;99.90
19928;DHT22;10126;50.876;4.470;2023-04-27T03:46:10;4.80;99.90
19928;DHT22;10126;50.876;4.470;2023-04-27T03:48:11;4.80;99.90
19928;DHT22;10126;50.876;4.470;2023-04-27T03:50:11;4.70;99.90
19928;DHT22;10126;50.876;4.470;2023-04-27T03:52:12;4.70;99.90
19928;DHT22;10126;50.876;4.470;2023-04-27T03:54:12;4.70;99.90
19928;DHT22;10126;50.876;4.470;2023-04-27T03:56:14;4.70;99.90
19928;DHT22;10126;50.876;4.470;2023-04-27T03:58:16;4.80;99.90
19928;DHT22;10126;50.876;4.470;2023-04-27T04:00:17;4.90;99.90
19928;DHT22;10126;50.876;4.470;2023-04-27T04:02:18;4.90;99.90
19928;DHT22;10126;50.876;4.470;2023-04-27T04:04:18;4.70;99.90
19928;DHT22;10126;50.876;4.470;2023-04-27T04:06:19;4.90;99.90
19928;DHT22;10126;50.876;4.470;2023-04-27T04:08:20;4.80;99.90
19928;DHT22;10126;50.876;4.470;2023-04-27T04:10:20;4.70;99.90
19928;DHT22;10126;50.876;4.470;2023-04-27T04:12:21;4.70;99.90
19928;DHT22;10126;50.876;4.470;2023-04-27T04:14:21;4.70;99.90
19928;DHT22;10126;50.876;4.470;2023-04-27T04:16:22;4.60;99.90
19928;DHT22;10126;50.876;4.470;2023-04-27T04:18:23;4.50;99.90
19928;DHT22;10126;50.876;4.470;2023-04-27T04:20:24;4.50;99.90
19928;DHT22;10126;50.876;4.470;2023-04-27T04:22:24;4.50;99.90
19928;DHT22;10126;50.876;4.470;2023-04-27T04:24:25;4.50;99.90
19928;DHT22;10126;50.876;4.470;2023-04-27T04:26:25;4.50;99.90
19928;DHT22;10126;50.876;4.470;2023-04-27T04:28:26;4.50;99.90
19928;DHT22;10126;50.876;4.470;2023-04-27T04:30:36;4.40;99.90
19928;DHT22;10126;50.876;4.470;2023-04-27T04:32:37;4.50;99.90
19928;DHT22;10126;50.876;4.470;2023-04-27T04:34:38;4.50;99.90
19928;DHT22;10126;50.876;4.470;2023-04-27T04:36:39;4.60;99.90
19928;DHT22;10126;50.876;4.470;2023-04-27T04:38:40;4.60;99.90
19928;DHT22;10126;50.876;4.470;2023-04-27T04:40:43;4.80;99.90
19928;DHT22;10126;50.876;4.470;2023-04-27T04:42:46;4.90;99.90
19928;DHT22;10126;50.876;4.470;2023-04-27T04:44:47;4.90;99.90
19928;DHT22;10126;50.876;4.470;2023-04-27T04:46:48;4.90;99.90
19928;DHT22;10126;50.876;4.470;2023-04-27T04:48:49;4.90;99.90
19928;DHT22;10126;50.876;4.470;2023-04-27T04:50:50;4.90;99.90
19928;DHT22;10126;50.876;4.470;2023-04-27T04:52:51;5.10;99.90
19928;DHT22;10126;50.876;4.470;2023-04-27T04:54:52;5.40;99.90
19928;DHT22;10126;50.876;4.470;2023-04-27T04:56:52;5.70;99.90
19928;DHT22;10126;50.876;4.470;2023-04-27T04:58:53;5.90;99.90
19928;DHT22;10126;50.876;4.470;2023-04-27T05:00:54;6.00;99.90
19928;DHT22;10126;50.876;4.470;2023-04-27T05:02:54;6.00;99.90
19928;DHT22;10126;50.876;4.470;2023-04-27T05:04:55;6.10;99.90
19928;DHT22;10126;50.876;4.470;2023-04-27T05:06:56;6.10;99.90
19928;DHT22;10126;50.876;4.470;2023-04-27T05:08:59;6.20;99.90
19928;DHT22;10126;50.876;4.470;2023-04-27T05:11:00;6.20;99.90
19928;DHT22;10126;50.876;4.470;2023-04-27T05:13:00;6.30;99.90
19928;DHT22;10126;50.876;4.470;2023-04-27T05:15:01;6.30;99.90
19928;DHT22;10126;50.876;4.470;2023-04-27T05:17:01;6.40;99.90
19928;DHT22;10126;50.876;4.470;2023-04-27T05:19:02;6.70;99.90
19928;DHT22;10126;50.876;4.470;2023-04-27T05:21:15;7.20;99.90
19928;DHT22;10126;50.876;4.470;2023-04-27T05:23:16;7.60;99.90
19928;DHT22;10126;50.876;4.470;2023-04-27T05:25:17;8.30;99.90
19928;DHT22;10126;50.876;4.470;2023-04-27T05:27:18;8.90;99.90
19928;DHT22;10126;50.876;4.470;2023-04-27T05:29:19;9.60;99.90
19928;DHT22;10126;50.876;4.470;2023-04-27T05:31:19;10.30;99.90
19928;DHT22;10126;50.876;4.470;2023-04-27T05:33:20;11.20;99.90
19928;DHT22;10126;50.876;4.470;2023-04-27T05:35:21;11.70;99.90
19928;DHT22;10126;50.876;4.470;2023-04-27T05:37:22;12.10;99.90
19928;DHT22;10126;50.876;4.470;2023-04-27T05:39:22;12.60;99.90
19928;DHT22;10126;50.876;4.470;2023-04-27T05:41:23;13.40;99.90
19928;DHT22;10126;50.876;4.470;2023-04-27T05:43:24;14.20;99.90
19928;DHT22;10126;50.876;4.470;2023-04-27T05:45:25;14.70;99.90
19928;DHT22;10126;50.876;4.470;2023-04-27T05:47:25;15.20;99.90
19928;DHT22;10126;50.876;4.470;2023-04-27T05:49:26;15.80;99.90
19928;DHT22;10126;50.876;4.470;2023-04-27T05:51:27;16.40;99.90
19928;DHT22;10126;50.876;4.470;2023-04-27T05:53:28;17.00;99.90
19928;DHT22;10126;50.876;4.470;2023-04-27T05:55:29;17.30;99.90
19928;DHT22;10126;50.876;4.470;2023-04-27T05:57:30;16.70;99.90
19928;DHT22;10126;50.876;4.470;2023-04-27T05:59:30;16.40;99.90
19928;DHT22;10126;50.876;4.470;2023-04-27T06:01:31;16.30;99.90
19928;DHT22;10126;50.876;4.470;2023-04-27T06:03:32;16.30;99.90
19928;DHT22;10126;50.876;4.470;2023-04-27T06:05:32;15.80;99.90
19928;DHT22;10126;50.876;4.470;2023-04-27T06:07:33;15.90;99.90
19928;DHT22;10126;50.876;4.470;2023-04-27T06:09:34;16.60;99.90
19928;DHT22;10126;50.876;4.470;2023-04-27T06:11:36;16.90;99.90
19928;DHT22;10126;50.876;4.470;2023-04-27T06:13:36;16.80;99.90
19928;DHT22;10126;50.876;4.470;2023-04-27T06:15:37;17.10;99.90
19928;DHT22;10126;50.876;4.470;2023-04-27T06:17:38;16.50;99.90
19928;DHT22;10126;50.876;4.470;2023-04-27T06:19:39;16.30;99.90
19928;DHT22;10126;50.876;4.470;2023-04-27T06:21:39;16.40;99.90
19928;DHT22;10126;50.876;4.470;2023-04-27T06:23:40;16.50;99.90
19928;DHT22;10126;50.876;4.470;2023-04-27T06:25:41;16.80;99.90
19928;DHT22;10126;50.876;4.470;2023-04-27T06:27:41;17.10;99.90
19928;DHT22;10126;50.876;4.470;2023-04-27T06:29:42;16.50;99.90
19928;DHT22;10126;50.876;4.470;2023-04-27T06:31:43;15.80;99.90
19928;DHT22;10126;50.876;4.470;2023-04-27T06:33:43;15.40;99.90
19928;DHT22;10126;50.876;4.470;2023-04-27T06:35:44;15.30;99.90
19928;DHT22;10126;50.876;4.470;2023-04-27T06:37:45;15.10;99.90
19928;DHT22;10126;50.876;4.470;2023-04-27T06:39:46;15.60;99.90
19928;DHT22;10126;50.876;4.470;2023-04-27T06:41:47;15.40;99.90
19928;DHT22;10126;50.876;4.470;2023-04-27T06:43:47;15.10;99.90
19928;DHT22;10126;50.876;4.470;2023-04-27T06:45:48;15.00;99.90
19928;DHT22;10126;50.876;4.470;2023-04-27T06:47:49;14.90;99.90
19928;DHT22;10126;50.876;4.470;2023-04-27T06:49:49;15.40;99.90
19928;DHT22;10126;50.876;4.470;2023-04-27T06:51:50;15.40;99.90
19928;DHT22;10126;50.876;4.470;2023-04-27T06:53:51;15.20;99.90
19928;DHT22;10126;50.876;4.470;2023-04-27T06:55:51;14.90;99.90
19928;DHT22;10126;50.876;4.470;2023-04-27T06:57:52;14.80;99.90
19928;DHT22;10126;50.876;4.470;2023-04-27T06:59:53;14.90;99.90
19928;DHT22;10126;50.876;4.470;2023-04-27T07:01:53;15.10;99.90
19928;DHT22;10126;50.876;4.470;2023-04-27T07:03:54;14.70;99.90
19928;DHT22;10126;50.876;4.470;2023-04-27T07:05:55;14.70;99.90
19928;DHT22;10126;50.876;4.470;2023-04-27T07:07:56;14.60;99.90
19928;DHT22;10126;50.876;4.470;2023-04-27T07:09:57;15.00;99.90
19928;DHT22;10126;50.876;4.470;2023-04-27T07:11:57;15.20;99.90
19928;DHT22;10126;50.876;4.470;2023-04-27T07:14:00;15.60;99.90
19928;DHT22;10126;50.876;4.470;2023-04-27T07:16:01;16.10;99.90
19928;DHT22;10126;50.876;4.470;2023-04-27T07:18:01;16.10;99.90
19928;DHT22;10126;50.876;4.470;2023-04-27T07:20:03;15.90;99.90
19928;DHT22;10126;50.876;4.470;2023-04-27T07:22:05;16.00;99.90
19928;DHT22;10126;50.876;4.470;2023-04-27T07:24:06;16.00;99.90
19928;DHT22;10126;50.876;4.470;2023-04-27T07:26:07;15.80;99.90
19928;DHT22;10126;50.876;4.470;2023-04-27T07:28:07;16.20;99.90
19928;DHT22;10126;50.876;4.470;2023-04-27T07:30:08;17.40;99.90
19928;DHT22;10126;50.876;4.470;2023-04-27T07:32:09;17.90;99.90
19928;DHT22;10126;50.876;4.470;2023-04-27T07:34:10;18.60;99.90
19928;DHT22;10126;50.876;4.470;2023-04-27T07:36:11;19.60;99.90
19928;DHT22;10126;50.876;4.470;2023-04-27T07:38:11;19.50;99.90
19928;DHT22;10126;50.876;4.470;2023-04-27T07:40:12;19.20;99.90
19928;DHT22;10126;50.876;4.470;2023-04-27T07:42:16;19.50;99.90
19928;DHT22;10126;50.876;4.470;2023-04-27T07:44:18;19.40;99.90
19928;DHT22;10126;50.876;4.470;2023-04-27T07:46:19;19.30;99.90
19928;DHT22;10126;50.876;4.470;2023-04-27T07:48:20;19.20;99.90
19928;DHT22;10126;50.876;4.470;2023-04-27T07:50:21;19.40;99.90
19928;DHT22;10126;50.876;4.470;2023-04-27T07:52:24;19.00;99.90
19928;DHT22;10126;50.876;4.470;2023-04-27T07:54:25;18.60;99.90
19928;DHT22;10126;50.876;4.470;2023-04-27T07:56:26;18.10;99.90
19928;DHT22;10126;50.876;4.470;2023-04-27T07:58:26;17.10;99.90
19928;DHT22;10126;50.876;4.470;2023-04-27T08:00:27;17.00;99.90
19928;DHT22;10126;50.876;4.470;2023-04-27T08:02:28;16.50;99.90
19928;DHT22;10126;50.876;4.470;2023-04-27T08:04:30;16.10;99.90
19928;DHT22;10126;50.876;4.470;2023-04-27T08:06:31;16.10;99.90
19928;DHT22;10126;50.876;4.470;2023-04-27T08:08:32;16.60;99.90
19928;DHT22;10126;50.876;4.470;2023-04-27T08:10:32;17.60;99.90
19928;DHT22;10126;50.876;4.470;2023-04-27T08:12:33;18.20;99.90
19928;DHT22;10126;50.876;4.470;2023-04-27T08:14:34;18.70;99.90
19928;DHT22;10126;50.876;4.470;2023-04-27T08:16:35;18.00;99.90
19928;DHT22;10126;50.876;4.470;2023-04-27T08:18:36;18.10;99.90
19928;DHT22;10126;50.876;4.470;2023-04-27T08:20:36;17.60;99.90
19928;DHT22;10126;50.876;4.470;2023-04-27T08:22:38;17.70;99.90
19928;DHT22;10126;50.876;4.470;2023-04-27T08:24:38;17.80;99.90
19928;DHT22;10126;50.876;4.470;2023-04-27T08:26:40;17.60;99.90
19928;DHT22;10126;50.876;4.470;2023-04-27T08:28:41;17.00;99.90
19928;DHT22;10126;50.876;4.470;2023-04-27T08:30:41;16.70;99.90
19928;DHT22;10126;50.876;4.470;2023-04-27T08:32:42;15.70;99.90
19928;DHT22;10126;50.876;4.470;2023-04-27T08:34:43;16.30;99.90
19928;DHT22;10126;50.876;4.470;2023-04-27T08:36:46;16.80;99.90
19928;DHT22;10126;50.876;4.470;2023-04-27T08:38:47;16.00;99.90
19928;DHT22;10126;50.876;4.470;2023-04-27T08:40:48;15.90;99.90
19928;DHT22;10126;50.876;4.470;2023-04-27T08:42:56;16.50;99.90
19928;DHT22;10126;50.876;4.470;2023-04-27T08:44:57;17.00;99.90
19928;DHT22;10126;50.876;4.470;2023-04-27T08:46:57;16.70;99.90
19928;DHT22;10126;50.876;4.470;2023-04-27T08:48:58;17.00;99.90
19928;DHT22;10126;50.876;4.470;2023-04-27T08:51:00;17.00;99.90
19928;DHT22;10126;50.876;4.470;2023-04-27T08:53:02;17.10;99.90
19928;DHT22;10126;50.876;4.470;2023-04-27T08:55:02;16.70;99.90
19928;DHT22;10126;50.876;4.470;2023-04-27T08:57:11;16.90;99.90
19928;DHT22;10126;50.876;4.470;2023-04-27T08:59:14;17.00;99.90
19928;DHT22;10126;50.876;4.470;2023-04-27T09:01:14;16.80;99.90
19928;DHT22;10126;50.876;4.470;2023-04-27T09:03:22;16.50;99.90
19928;DHT22;10126;50.876;4.470;2023-04-27T09:05:23;16.70;99.90
19928;DHT22;10126;50.876;4.470;2023-04-27T09:07:23;16.40;99.90
19928;DHT22;10126;50.876;4.470;2023-04-27T09:09:24;15.60;99.90
19928;DHT22;10126;50.876;4.470;2023-04-27T09:11:33;15.90;99.90
19928;DHT22;10126;50.876;4.470;2023-04-27T09:13:38;16.80;99.90
19928;DHT22;10126;50.876;4.470;2023-04-27T09:15:46;17.10;99.90
19928;DHT22;10126;50.876;4.470;2023-04-27T09:17:55;16.70;99.90
19928;DHT22;10126;50.876;4.470;2023-04-27T09:20:06;17.10;99.90
19928;DHT22;10126;50.876;4.470;2023-04-27T09:22:12;17.10;99.90
19928;DHT22;10126;50.876;4.470;2023-04-27T09:24:14;17.30;99.90
19928;DHT22;10126;50.876;4.470;2023-04-27T09:26:20;17.50;99.90
19928;DHT22;10126;50.876;4.470;2023-04-27T09:28:21;17.00;99.90
19928;DHT22;10126;50.876;4.470;2023-04-27T09:30:23;17.00;99.90
19928;DHT22;10126;50.876;4.470;2023-04-27T09:32:23;16.90;99.90
19928;DHT22;10126;50.876;4.470;2023-04-27T09:34:24;16.80;99.90
19928;DHT22;10126;50.876;4.470;2023-04-27T09:36:25;16.00;99.90
19928;DHT22;10126;50.876;4.470;2023-04-27T09:38:28;16.50;99.90
19928;DHT22;10126;50.876;4.470;2023-04-27T09:40:29;16.80;99.90
19928;DHT22;10126;50.876;4.470;2023-04-27T09:42:31;15.90;99.90
19928;DHT22;10126;50.876;4.470;2023-04-27T09:44:32;16.10;99.90
19928;DHT22;10126;50.876;4.470;2023-04-27T09:46:34;17.10;99.90
19928;DHT22;10126;50.876;4.470;2023-04-27T09:48:38;17.60;99.90
19928;DHT22;10126;50.876;4.470;2023-04-27T09:50:41;16.90;99.90
19928;DHT22;10126;50.876;4.470;2023-04-27T09:52:42;16.00;99.90
19928;DHT22;10126;50.876;4.470;2023-04-27T09:54:42;15.90;99.90
19928;DHT22;10126;50.876;4.470;2023-04-27T10:01:30;18.00;99.90
19928;DHT22;10126;50.876;4.470;2023-04-27T10:08:34;16.90;99.90
19928;DHT22;10126;50.876;4.470;2023-04-27T10:10:45;16.70;99.80
19928;DHT22;10126;50.876;4.470;2023-04-27T10:13:00;16.60;99.90
19928;DHT22;10126;50.876;4.470;2023-04-27T10:17:12;16.40;98.10
19928;DHT22;10126;50.876;4.470;2023-04-27T10:19:13;16.30;99.90
19928;DHT22;10126;50.876;4.470;2023-04-27T10:21:14;16.20;99.90
19928;DHT22;10126;50.876;4.470;2023-04-27T10:23:25;15.70;99.90
19928;DHT22;10126;50.876;4.470;2023-04-27T10:25:28;15.50;99.90
19928;DHT22;10126;50.876;4.470;2023-04-27T10:27:38;15.40;99.90
19928;DHT22;10126;50.876;4.470;2023-04-27T10:29:40;15.50;99.90
19928;DHT22;10126;50.876;4.470;2023-04-27T10:31:46;15.50;99.90
19928;DHT22;10126;50.876;4.470;2023-04-27T10:33:47;15.70;99.90
19928;DHT22;10126;50.876;4.470;2023-04-27T10:35:56;15.80;99.90
19928;DHT22;10126;50.876;4.470;2023-04-27T10:38:08;15.60;99.90
19928;DHT22;10126;50.876;4.470;2023-04-27T10:40:38;15.50;99.90
19928;DHT22;10126;50.876;4.470;2023-04-27T10:42:40;15.70;99.90
19928;DHT22;10126;50.876;4.470;2023-04-27T10:44:40;15.80;99.90
19928;DHT22;10126;50.876;4.470;2023-04-27T10:46:51;16.10;99.90
19928;DHT22;10126;50.876;4.470;2023-04-27T10:48:52;16.40;99.90
19928;DHT22;10126;50.876;4.470;2023-04-27T10:50:53;16.50;99.90
19928;DHT22;10126;50.876;4.470;2023-04-27T10:53:01;16.50;99.90
19928;DHT22;10126;50.876;4.470;2023-04-27T10:55:16;16.40;99.90
19928;DHT22;10126;50.876;4.470;2023-04-27T10:57:17;16.20;99.90
19928;DHT22;10126;50.876;4.470;2023-04-27T10:59:18;16.10;99.90
19928;DHT22;10126;50.876;4.470;2023-04-27T11:01:25;16.10;99.90
19928;DHT22;10126;50.876;4.470;2023-04-27T11:03:26;15.70;99.90
19928;DHT22;10126;50.876;4.470;2023-04-27T11:05:27;15.90;99.90
19928;DHT22;10126;50.876;4.470;2023-04-27T11:07:32;16.00;99.90
19928;DHT22;10126;50.876;4.470;2023-04-27T11:09:35;16.10;99.90
19928;DHT22;10126;50.876;4.470;2023-04-27T11:11:37;16.00;99.90
19928;DHT22;10126;50.876;4.470;2023-04-27T11:13:38;16.10;99.90
19928;DHT22;10126;50.876;4.470;2023-04-27T11:15:55;16.10;99.90
19928;DHT22;10126;50.876;4.470;2023-04-27T11:18:04;15.80;99.90
19928;DHT22;10126;50.876;4.470;2023-04-27T11:20:05;15.20;99.90
19928;DHT22;10126;50.876;4.470;2023-04-27T11:22:09;15.20;99.90
19928;DHT22;10126;50.876;4.470;2023-04-27T11:24:09;15.20;99.90
19928;DHT22;10126;50.876;4.470;2023-04-27T11:26:12;14.90;99.90
19928;DHT22;10126;50.876;4.470;2023-04-27T11:28:18;15.40;99.90
19928;DHT22;10126;50.876;4.470;2023-04-27T11:30:20;15.20;99.90
19928;DHT22;10126;50.876;4.470;2023-04-27T11:32:22;15.70;99.90
19928;DHT22;10126;50.876;4.470;2023-04-27T11:34:24;16.20;99.90
19928;DHT22;10126;50.876;4.470;2023-04-27T11:36:25;16.40;99.90
19928;DHT22;10126;50.876;4.470;2023-04-27T11:38:32;16.30;99.90
19928;DHT22;10126;50.876;4.470;2023-04-27T11:40:33;16.10;99.40
19928;DHT22;10126;50.876;4.470;2023-04-27T11:42:35;15.60;99.90
19928;DHT22;10126;50.876;4.470;2023-04-27T11:44:35;15.90;99.90
19928;DHT22;10126;50.876;4.470;2023-04-27T11:46:37;16.20;99.10
19928;DHT22;10126;50.876;4.470;2023-04-27T11:48:38;15.70;96.30
19928;DHT22;10126;50.876;4.470;2023-04-27T11:50:39;15.70;94.30
19928;DHT22;10126;50.876;4.470;2023-04-27T11:52:40;15.80;97.20
19928;DHT22;10126;50.876;4.470;2023-04-27T11:54:47;15.90;96.20
19928;DHT22;10126;50.876;4.470;2023-04-27T11:56:48;15.20;96.80
19928;DHT22;10126;50.876;4.470;2023-04-27T11:58:49;15.40;97.00
19928;DHT22;10126;50.876;4.470;2023-04-27T12:00:50;15.60;99.30
19928;DHT22;10126;50.876;4.470;2023-04-27T12:02:50;15.60;98.70
19928;DHT22;10126;50.876;4.470;2023-04-27T12:04:51;15.70;97.80
19928;DHT22;10126;50.876;4.470;2023-04-27T12:06:52;15.40;99.00
19928;DHT22;10126;50.876;4.470;2023-04-27T12:08:53;15.50;99.60
19928;DHT22;10126;50.876;4.470;2023-04-27T12:10:54;15.60;99.90
19928;DHT22;10126;50.876;4.470;2023-04-27T12:12:55;15.80;98.20
19928;DHT22;10126;50.876;4.470;2023-04-27T12:14:55;15.80;97.30
19928;DHT22;10126;50.876;4.470;2023-04-27T12:16:57;15.80;99.90
19928;DHT22;10126;50.876;4.470;2023-04-27T12:18:57;15.90;99.20
19928;DHT22;10126;50.876;4.470;2023-04-27T12:20:58;15.60;99.90
19928;DHT22;10126;50.876;4.470;2023-04-27T12:22:59;15.50;98.30
19928;DHT22;10126;50.876;4.470;2023-04-27T12:25:00;15.60;98.30
19928;DHT22;10126;50.876;4.470;2023-04-27T12:27:01;15.50;97.60
19928;DHT22;10126;50.876;4.470;2023-04-27T12:29:02;15.50;97.60
19928;DHT22;10126;50.876;4.470;2023-04-27T12:31:04;15.50;97.50
19928;DHT22;10126;50.876;4.470;2023-04-27T12:33:04;15.30;98.70
19928;DHT22;10126;50.876;4.470;2023-04-27T12:35:10;15.30;99.20
19928;DHT22;10126;50.876;4.470;2023-04-27T12:37:10;15.40;97.90
19928;DHT22;10126;50.876;4.470;2023-04-27T12:39:19;15.30;99.50
19928;DHT22;10126;50.876;4.470;2023-04-27T12:41:20;15.00;99.90
19928;DHT22;10126;50.876;4.470;2023-04-27T12:43:22;15.10;99.90
19928;DHT22;10126;50.876;4.470;2023-04-27T12:45:23;15.50;99.90
19928;DHT22;10126;50.876;4.470;2023-04-27T12:47:23;15.60;99.90
19928;DHT22;10126;50.876;4.470;2023-04-27T12:49:24;15.50;99.90
19928;DHT22;10126;50.876;4.470;2023-04-27T12:51:26;15.60;99.90
19928;DHT22;10126;50.876;4.470;2023-04-27T12:53:28;15.60;99.90
19928;DHT22;10126;50.876;4.470;2023-04-27T12:55:28;15.60;99.90
19928;DHT22;10126;50.876;4.470;2023-04-27T12:57:29;15.70;98.20
19928;DHT22;10126;50.876;4.470;2023-04-27T12:59:34;15.60;97.00
19928;DHT22;10126;50.876;4.470;2023-04-27T13:01:35;15.60;95.40
19928;DHT22;10126;50.876;4.470;2023-04-27T13:03:36;15.60;97.30
19928;DHT22;10126;50.876;4.470;2023-04-27T13:05:36;15.80;97.50